sensor_id;sensor_type;location;lat;lon;timestamp;pressure;altitude;pressure_sealevel;temperature;humidity
53719;BME280;39616;48.872;9.390;2023-05-02T00:00:11;98422.44;;;8.12;100.00
53719;BME280;39616;48.872;9.390;2023-05-02T00:02:42;98430.81;;;8.11;100.00
53719;BME280;39616;48.872;9.390;2023-05-02T00:05:13;98428.69;;;8.03;100.00
53719;BME280;39616;48.872;9.390;2023-05-02T00:07:43;98422.47;;;8.02;100.00
53719;BME280;39616;48.872;9.390;2023-05-02T00:10:13;98416.25;;;8.02;100.00
53719;BME280;39616;48.872;9.390;2023-05-02T00:12:44;98421.66;;;8.02;100.00
53719;BME280;39616;48.872;9.390;2023-05-02T00:15:14;98426.56;;;7.99;100.00
53719;BME280;39616;48.872;9.390;2023-05-02T00:17:44;98423.28;;;8.03;100.00
53719;BME280;39616;48.872;9.390;2023-05-02T00:20:15;98423.28;;;8.03;100.00
53719;BME280;39616;48.872;9.390;2023-05-02T00:22:45;98417.38;;;8.01;100.00
53719;BME280;39616;48.872;9.390;2023-05-02T00:25:15;98427.09;;;7.96;100.00
53719;BME280;39616;48.872;9.390;2023-05-02T00:27:46;98426.31;;;7.91;100.00
53719;BME280;39616;48.872;9.390;2023-05-02T00:30:18;98424.69;;;7.90;100.00
53719;BME280;39616;48.872;9.390;2023-05-02T00:32:50;98423.09;;;7.84;100.00
53719;BME280;39616;48.872;9.390;2023-05-02T00:35:20;98420.13;;;7.80;100.00
53719;BME280;39616;48.872;9.390;2023-05-02T00:37:50;98418.25;;;7.75;100.00
53719;BME280;39616;48.872;9.390;2023-05-02T00:40:20;98413.97;;;7.74;100.00
53719;BME280;39616;48.872;9.390;2023-05-02T00:42:51;98423.16;;;7.73;100.00
53719;BME280;39616;48.872;9.390;2023-05-02T00:45:21;98415.84;;;7.69;100.00
53719;BME280;39616;48.872;9.390;2023-05-02T00:47:51;98419.13;;;7.66;100.00
53719;BME280;39616;48.872;9.390;2023-05-02T00:50:25;98421.28;;;7.64;100.00
53719;BME280;39616;48.872;9.390;2023-05-02T00:52:56;98416.16;;;7.62;100.00
53719;BME280;39616;48.872;9.390;2023-05-02T00:55:26;98425.06;;;7.63;100.00
53719;BME280;39616;48.872;9.390;2023-05-02T00:57:57;98429.94;;;7.56;100.00
53719;BME280;39616;48.872;9.390;2023-05-02T01:01:10;98424.03;;;7.48;100.00
53719;BME280;39616;48.872;9.390;2023-05-02T01:12:26;98426.19;;;7.36;100.00
53719;BME280;39616;48.872;9.390;2023-05-02T01:15:01;98429.72;;;7.26;100.00
53719;BME280;39616;48.872;9.390;2023-05-02T01:17:33;98431.06;;;7.24;100.00
53719;BME280;39616;48.872;9.390;2023-05-02T01:20:07;98438.34;;;7.23;100.00
53719;BME280;39616;48.872;9.390;2023-05-02T01:22:39;98433.25;;;7.22;100.00
53719;BME280;39616;48.872;9.390;2023-05-02T01:25:25;98440.53;;;7.16;100.00
53719;BME280;39616;48.872;9.390;2023-05-02T01:31:03;98442.44;;;7.11;100.00
53719;BME280;39616;48.872;9.390;2023-05-02T01:33:35;98441.06;;;7.08;100.00
53719;BME280;39616;48.872;9.390;2023-05-02T01:36:07;98441.06;;;7.03;100.00
53719;BME280;39616;48.872;9.390;2023-05-02T01:38:38;98445.66;;;7.08;100.00
53719;BME280;39616;48.872;9.390;2023-05-02T01:41:11;98439.19;;;7.09;100.00
53719;BME280;39616;48.872;9.390;2023-05-02T01:43:43;98445.66;;;7.02;100.00
53719;BME280;39616;48.872;9.390;2023-05-02T01:46:15;98439.72;;;7.00;100.00
53719;BME280;39616;48.872;9.390;2023-05-02T01:48:47;98440.78;;;6.99;100.00
53719;BME280;39616;48.872;9.390;2023-05-02T01:51:22;98443.47;;;6.99;100.00
53719;BME280;39616;48.872;9.390;2023-05-02T01:53:58;98450.50;;;7.00;100.00
53719;BME280;39616;48.872;9.390;2023-05-02T01:56:31;98447.56;;;6.97;100.00
53719;BME280;39616;48.872;9.390;2023-05-02T01:59:22;98449.16;;;6.98;100.00
53719;BME280;39616;48.872;9.390;2023-05-02T02:01:54;98450.25;;;6.97;100.00
53719;BME280;39616;48.872;9.390;2023-05-02T02:04:25;98449.44;;;6.96;100.00
53719;BME280;39616;48.872;9.390;2023-05-02T02:07:06;98452.66;;;6.98;100.00
53719;BME280;39616;48.872;9.390;2023-05-02T02:09:38;98450.25;;;6.97;100.00
53719;BME280;39616;48.872;9.390;2023-05-02T02:12:16;98457.25;;;6.98;100.00
53719;BME280;39616;48.872;9.390;2023-05-02T02:17:48;98459.66;;;6.99;100.00
53719;BME280;39616;48.872;9.390;2023-05-02T02:20:26;98458.34;;;6.97;100.00
53719;BME280;39616;48.872;9.390;2023-05-02T02:22:59;98463.72;;;6.97;100.00
53719;BME280;39616;48.872;9.390;2023-05-02T02:25:32;98461.56;;;6.94;100.00
53719;BME280;39616;48.872;9.390;2023-05-02T02:28:03;98475.56;;;6.91;100.00
53719;BME280;39616;48.872;9.390;2023-05-02T02:30:33;98480.44;;;6.89;100.00
53719;BME280;39616;48.872;9.390;2023-05-02T02:33:04;98484.47;;;6.91;100.00
53719;BME280;39616;48.872;9.390;2023-05-02T02:35:39;98493.34;;;6.92;100.00
53719;BME280;39616;48.872;9.390;2023-05-02T02:38:36;98494.72;;;6.89;100.00
53719;BME280;39616;48.872;9.390;2023-05-02T02:44:04;98502.78;;;6.84;100.00
53719;BME280;39616;48.872;9.390;2023-05-02T02:46:59;98502.78;;;6.79;100.00
53719;BME280;39616;48.872;9.390;2023-05-02T02:49:47;98501.72;;;6.75;100.00
53719;BME280;39616;48.872;9.390;2023-05-02T02:52:34;98505.75;;;6.67;100.00
53719;BME280;39616;48.872;9.390;2023-05-02T02:55:23;98513.53;;;6.69;100.00
53719;BME280;39616;48.872;9.390;2023-05-02T03:01:02;98526.22;;;6.68;100.00
53719;BME280;39616;48.872;9.390;2023-05-02T03:03:33;98524.84;;;6.66;100.00
53719;BME280;39616;48.872;9.390;2023-05-02T03:06:05;98525.13;;;6.59;100.00
53719;BME280;39616;48.872;9.390;2023-05-02T03:08:42;98528.63;;;6.60;100.00
53719;BME280;39616;48.872;9.390;2023-05-02T03:11:13;98532.94;;;6.61;100.00
53719;BME280;39616;48.872;9.390;2023-05-02T03:13:43;98536.44;;;6.61;100.00
53719;BME280;39616;48.872;9.390;2023-05-02T03:16:36;98534.81;;;6.65;100.00
53719;BME280;39616;48.872;9.390;2023-05-02T03:19:07;98534.84;;;6.70;100.00
53719;BME280;39616;48.872;9.390;2023-05-02T03:21:38;98540.50;;;6.69;100.00
53719;BME280;39616;48.872;9.390;2023-05-02T03:24:08;98543.75;;;6.71;100.00
53719;BME280;39616;48.872;9.390;2023-05-02T03:26:38;98547.50;;;6.70;100.00
53719;BME280;39616;48.872;9.390;2023-05-02T03:29:09;98551.28;;;6.64;100.00
53719;BME280;39616;48.872;9.390;2023-05-02T03:31:39;98547.50;;;6.60;100.00
53719;BME280;39616;48.872;9.390;2023-05-02T03:34:10;98546.94;;;6.58;100.00
53719;BME280;39616;48.872;9.390;2023-05-02T03:36:40;98563.09;;;6.58;100.00
53719;BME280;39616;48.872;9.390;2023-05-02T03:39:10;98556.63;;;6.59;100.00
53719;BME280;39616;48.872;9.390;2023-05-02T03:41:41;98560.97;;;6.60;100.00
53719;BME280;39616;48.872;9.390;2023-05-02T03:44:12;98553.69;;;6.60;100.00
53719;BME280;39616;48.872;9.390;2023-05-02T03:46:43;98561.47;;;6.57;100.00
53719;BME280;39616;48.872;9.390;2023-05-02T03:49:13;98566.34;;;6.60;100.00
53719;BME280;39616;48.872;9.390;2023-05-02T03:51:44;98570.38;;;6.62;100.00
53719;BME280;39616;48.872;9.390;2023-05-02T03:54:14;98574.44;;;6.65;100.00
53719;BME280;39616;48.872;9.390;2023-05-02T03:56:44;98575.81;;;6.67;100.00
53719;BME280;39616;48.872;9.390;2023-05-02T03:59:16;98577.69;;;6.72;100.00
53719;BME280;39616;48.872;9.390;2023-05-02T04:01:49;98572.34;;;6.82;100.00
53719;BME280;39616;48.872;9.390;2023-05-02T04:04:20;98585.81;;;6.87;100.00
53719;BME280;39616;48.872;9.390;2023-05-02T04:06:50;98581.56;;;6.96;100.00
53719;BME280;39616;48.872;9.390;2023-05-02T04:09:20;98582.88;;;6.99;100.00
53719;BME280;39616;48.872;9.390;2023-05-02T04:11:54;98584.53;;;7.05;100.00
53719;BME280;39616;48.872;9.390;2023-05-02T04:14:24;98588.84;;;7.16;100.00
53719;BME280;39616;48.872;9.390;2023-05-02T04:16:54;98584.53;;;7.20;100.00
53719;BME280;39616;48.872;9.390;2023-05-02T04:19:25;98588.59;;;7.23;100.00
53719;BME280;39616;48.872;9.390;2023-05-02T04:21:55;98596.41;;;7.24;100.00
53719;BME280;39616;48.872;9.390;2023-05-02T04:24:25;98598.31;;;7.29;100.00
53719;BME280;39616;48.872;9.390;2023-05-02T04:26:56;98599.97;;;7.40;100.00
53719;BME280;39616;48.872;9.390;2023-05-02T04:29:26;98602.09;;;7.54;100.00
53719;BME280;39616;48.872;9.390;2023-05-02T04:31:56;98604.00;;;7.63;100.00
53719;BME280;39616;48.872;9.390;2023-05-02T04:34:26;98599.97;;;7.56;100.00
53719;BME280;39616;48.872;9.390;2023-05-02T04:36:57;98610.22;;;7.48;100.00
53719;BME280;39616;48.872;9.390;2023-05-02T04:39:27;98611.28;;;7.63;100.00
53719;BME280;39616;48.872;9.390;2023-05-02T04:41:58;98607.50;;;7.74;100.00
53719;BME280;39616;48.872;9.390;2023-05-02T04:44:28;98609.66;;;7.82;100.00
53719;BME280;39616;48.872;9.390;2023-05-02T04:46:58;98615.59;;;7.79;100.00
53719;BME280;39616;48.872;9.390;2023-05-02T04:49:29;98614.50;;;7.80;100.00
53719;BME280;39616;48.872;9.390;2023-05-02T04:52:01;98611.03;;;7.85;100.00
53719;BME280;39616;48.872;9.390;2023-05-02T04:54:32;98613.97;;;7.83;100.00
53719;BME280;39616;48.872;9.390;2023-05-02T04:57:03;98612.91;;;7.84;100.00
53719;BME280;39616;48.872;9.390;2023-05-02T04:59:36;98615.03;;;7.87;100.00
53719;BME280;39616;48.872;9.390;2023-05-02T05:02:07;98625.56;;;7.84;100.00
53719;BME280;39616;48.872;9.390;2023-05-02T05:04:41;98623.69;;;7.89;100.00
53719;BME280;39616;48.872;9.390;2023-05-02T05:07:11;98628.28;;;7.94;100.00
53719;BME280;39616;48.872;9.390;2023-05-02T05:09:42;98626.09;;;8.01;100.00
53719;BME280;39616;48.872;9.390;2023-05-02T05:12:12;98632.31;;;8.02;100.00
53719;BME280;39616;48.872;9.390;2023-05-02T05:14:45;98632.03;;;8.08;100.00
53719;BME280;39616;48.872;9.390;2023-05-02T05:17:15;98637.44;;;8.18;100.00
53719;BME280;39616;48.872;9.390;2023-05-02T05:19:46;98642.53;;;8.30;100.00
53719;BME280;39616;48.872;9.390;2023-05-02T05:22:16;98649.31;;;8.38;100.00
53719;BME280;39616;48.872;9.390;2023-05-02T05:24:53;98652.25;;;8.46;100.00
53719;BME280;39616;48.872;9.390;2023-05-02T05:27:23;98660.88;;;8.54;100.00
53719;BME280;39616;48.872;9.390;2023-05-02T05:29:53;98674.38;;;8.64;100.00
53719;BME280;39616;48.872;9.390;2023-05-02T05:32:24;98674.06;;;8.76;100.00
53719;BME280;39616;48.872;9.390;2023-05-02T05:34:55;98671.56;;;8.94;100.00
53719;BME280;39616;48.872;9.390;2023-05-02T05:37:25;98677.47;;;9.02;100.00
53719;BME280;39616;48.872;9.390;2023-05-02T05:39:56;98688.81;;;9.09;100.00
53719;BME280;39616;48.872;9.390;2023-05-02T05:42:26;98692.81;;;9.22;100.00
53719;BME280;39616;48.872;9.390;2023-05-02T05:44:58;98691.94;;;9.31;100.00
53719;BME280;39616;48.872;9.390;2023-05-02T05:47:29;98692.72;;;9.37;100.00
53719;BME280;39616;48.872;9.390;2023-05-02T05:49:59;98692.69;;;9.47;100.00
53719;BME280;39616;48.872;9.390;2023-05-02T05:52:29;98702.13;;;9.50;100.00
53719;BME280;39616;48.872;9.390;2023-05-02T05:55:00;98699.34;;;9.60;100.00
53719;BME280;39616;48.872;9.390;2023-05-02T05:57:30;98700.50;;;9.54;100.00
53719;BME280;39616;48.872;9.390;2023-05-02T06:00:01;98704.47;;;9.66;100.00
53719;BME280;39616;48.872;9.390;2023-05-02T06:02:31;98704.66;;;9.75;100.00
53719;BME280;39616;48.872;9.390;2023-05-02T06:05:01;98717.38;;;9.80;100.00
53719;BME280;39616;48.872;9.390;2023-05-02T06:07:31;98710.81;;;9.91;100.00
53719;BME280;39616;48.872;9.390;2023-05-02T06:10:02;98717.81;;;9.92;100.00
53719;BME280;39616;48.872;9.390;2023-05-02T06:12:32;98718.19;;;9.80;100.00
53719;BME280;39616;48.872;9.390;2023-05-02T06:15:03;98716.59;;;9.74;100.00
53719;BME280;39616;48.872;9.390;2023-05-02T06:17:33;98717.03;;;9.86;100.00
53719;BME280;39616;48.872;9.390;2023-05-02T06:20:04;98725.16;;;9.91;100.00
53719;BME280;39616;48.872;9.390;2023-05-02T06:22:36;98726.72;;;9.98;100.00
53719;BME280;39616;48.872;9.390;2023-05-02T06:25:07;98729.66;;;10.06;100.00
53719;BME280;39616;48.872;9.390;2023-05-02T06:27:37;98727.69;;;10.12;100.00
53719;BME280;39616;48.872;9.390;2023-05-02T06:30:08;98736.34;;;10.14;100.00
53719;BME280;39616;48.872;9.390;2023-05-02T06:32:38;98738.66;;;10.36;100.00
53719;BME280;39616;48.872;9.390;2023-05-02T06:35:11;98743.13;;;10.11;100.00
53719;BME280;39616;48.872;9.390;2023-05-02T06:37:41;98749.97;;;10.09;100.00
53719;BME280;39616;48.872;9.390;2023-05-02T06:40:12;98751.31;;;10.46;100.00
53719;BME280;39616;48.872;9.390;2023-05-02T06:42:43;98744.50;;;10.48;100.00
53719;BME280;39616;48.872;9.390;2023-05-02T06:45:13;98748.06;;;10.73;100.00
53719;BME280;39616;48.872;9.390;2023-05-02T06:47:43;98758.28;;;10.81;100.00
53719;BME280;39616;48.872;9.390;2023-05-02T06:50:14;98763.69;;;10.81;100.00
53719;BME280;39616;48.872;9.390;2023-05-02T06:52:45;98766.97;;;10.78;100.00
53719;BME280;39616;48.872;9.390;2023-05-02T06:55:15;98758.41;;;10.95;100.00
53719;BME280;39616;48.872;9.390;2023-05-02T06:57:47;98768.88;;;10.77;100.00
53719;BME280;39616;48.872;9.390;2023-05-02T07:00:18;98771.44;;;10.93;100.00
53719;BME280;39616;48.872;9.390;2023-05-02T07:02:49;98773.69;;;10.85;100.00
53719;BME280;39616;48.872;9.390;2023-05-02T07:05:19;98775.59;;;10.85;100.00
53719;BME280;39616;48.872;9.390;2023-05-02T07:07:49;98767.28;;;11.00;100.00
53719;BME280;39616;48.872;9.390;2023-05-02T07:10:20;98780.78;;;10.81;100.00
53719;BME280;39616;48.872;9.390;2023-05-02T07:12:50;98770.97;;;10.85;100.00
53719;BME280;39616;48.872;9.390;2023-05-02T07:15:20;98780.16;;;10.89;100.00
53719;BME280;39616;48.872;9.390;2023-05-02T07:17:51;98783.63;;;11.19;100.00
53719;BME280;39616;48.872;9.390;2023-05-02T07:20:21;98776.88;;;10.93;100.00
53719;BME280;39616;48.872;9.390;2023-05-02T07:22:52;98786.66;;;11.18;100.00
53719;BME280;39616;48.872;9.390;2023-05-02T07:25:22;98794.09;;;11.07;100.00
53719;BME280;39616;48.872;9.390;2023-05-02T07:27:53;98792.38;;;11.16;100.00
53719;BME280;39616;48.872;9.390;2023-05-02T07:30:23;98792.22;;;11.26;100.00
53719;BME280;39616;48.872;9.390;2023-05-02T07:32:53;98796.59;;;11.27;99.76
53719;BME280;39616;48.872;9.390;2023-05-02T07:35:24;98803.84;;;11.08;100.00
53719;BME280;39616;48.872;9.390;2023-05-02T07:37:54;98800.50;;;11.40;100.00
53719;BME280;39616;48.872;9.390;2023-05-02T07:40:27;98802.06;;;11.22;100.00
53719;BME280;39616;48.872;9.390;2023-05-02T07:42:59;98800.75;;;11.20;99.07
53719;BME280;39616;48.872;9.390;2023-05-02T07:45:30;98804.44;;;11.29;98.41
53719;BME280;39616;48.872;9.390;2023-05-02T07:48:01;98801.31;;;11.41;97.61
53719;BME280;39616;48.872;9.390;2023-05-02T07:50:31;98801.56;;;11.63;98.33
53719;BME280;39616;48.872;9.390;2023-05-02T07:53:01;98796.13;;;11.63;94.79
53719;BME280;39616;48.872;9.390;2023-05-02T07:55:32;98804.09;;;11.35;95.41
53719;BME280;39616;48.872;9.390;2023-05-02T07:58:02;98805.19;;;11.34;94.95
53719;BME280;39616;48.872;9.390;2023-05-02T08:00:33;98809.13;;;11.66;96.83
53719;BME280;39616;48.872;9.390;2023-05-02T08:03:03;98818.13;;;11.85;92.54
53719;BME280;39616;48.872;9.390;2023-05-02T08:05:33;98811.50;;;11.73;94.97
53719;BME280;39616;48.872;9.390;2023-05-02T08:08:04;98824.75;;;11.55;93.58
53719;BME280;39616;48.872;9.390;2023-05-02T08:10:34;98821.56;;;11.72;94.80
53719;BME280;39616;48.872;9.390;2023-05-02T08:13:04;98823.38;;;11.58;93.65
53719;BME280;39616;48.872;9.390;2023-05-02T08:15:35;98822.09;;;11.50;94.63
53719;BME280;39616;48.872;9.390;2023-05-02T08:18:05;98833.88;;;11.41;95.14
53719;BME280;39616;48.872;9.390;2023-05-02T08:20:36;98832.84;;;11.36;96.27
53719;BME280;39616;48.872;9.390;2023-05-02T08:23:06;98832.06;;;11.60;98.01
53719;BME280;39616;48.872;9.390;2023-05-02T08:25:36;98832.94;;;11.74;93.77
53719;BME280;39616;48.872;9.390;2023-05-02T08:28:07;98845.94;;;12.01;94.07
53719;BME280;39616;48.872;9.390;2023-05-02T08:30:37;98839.03;;;11.90;92.42
53719;BME280;39616;48.872;9.390;2023-05-02T08:33:08;98834.13;;;12.30;91.84
53719;BME280;39616;48.872;9.390;2023-05-02T08:35:38;98841.44;;;12.48;86.80
53719;BME280;39616;48.872;9.390;2023-05-02T08:38:08;98841.38;;;12.35;89.02
53719;BME280;39616;48.872;9.390;2023-05-02T08:40:39;98846.28;;;12.51;86.40
53719;BME280;39616;48.872;9.390;2023-05-02T08:43:12;98848.38;;;12.73;87.17
53719;BME280;39616;48.872;9.390;2023-05-02T08:45:45;98854.44;;;12.32;87.92
53719;BME280;39616;48.872;9.390;2023-05-02T08:48:16;98852.63;;;12.79;85.39
53719;BME280;39616;48.872;9.390;2023-05-02T08:50:48;98852.66;;;12.61;86.28
53719;BME280;39616;48.872;9.390;2023-05-02T08:53:20;98847.66;;;13.00;84.83
53719;BME280;39616;48.872;9.390;2023-05-02T08:55:50;98853.59;;;12.37;86.24
53719;BME280;39616;48.872;9.390;2023-05-02T08:58:21;98855.25;;;12.52;85.66
53719;BME280;39616;48.872;9.390;2023-05-02T09:00:52;98853.63;;;13.16;84.49
53719;BME280;39616;48.872;9.390;2023-05-02T09:03:32;98858.97;;;13.21;81.33
53719;BME280;39616;48.872;9.390;2023-05-02T09:06:14;98861.31;;;13.28;81.91
53719;BME280;39616;48.872;9.390;2023-05-02T09:08:47;98852.00;;;13.15;82.88
53719;BME280;39616;48.872;9.390;2023-05-02T09:11:18;98857.50;;;13.43;80.61
53719;BME280;39616;48.872;9.390;2023-05-02T09:13:50;98853.28;;;13.64;80.49
53719;BME280;39616;48.872;9.390;2023-05-02T09:16:24;98856.09;;;13.59;80.87
53719;BME280;39616;48.872;9.390;2023-05-02T09:18:57;98859.03;;;13.63;79.07
53719;BME280;39616;48.872;9.390;2023-05-02T09:21:38;98860.97;;;14.12;79.33
53719;BME280;39616;48.872;9.390;2023-05-02T09:24:16;98856.22;;;14.18;76.34
53719;BME280;39616;48.872;9.390;2023-05-02T09:27:00;98862.19;;;14.06;75.90
53719;BME280;39616;48.872;9.390;2023-05-02T09:29:34;98863.19;;;14.60;75.35
53719;BME280;39616;48.872;9.390;2023-05-02T09:32:05;98861.47;;;15.18;73.01
53719;BME280;39616;48.872;9.390;2023-05-02T09:34:35;98862.06;;;15.86;70.72
53719;BME280;39616;48.872;9.390;2023-05-02T09:37:08;98855.22;;;16.23;68.13
53719;BME280;39616;48.872;9.390;2023-05-02T09:39:39;98858.53;;;15.94;68.06
53719;BME280;39616;48.872;9.390;2023-05-02T09:42:09;98847.69;;;16.46;66.91
53719;BME280;39616;48.872;9.390;2023-05-02T09:44:40;98852.81;;;16.39;67.18
53719;BME280;39616;48.872;9.390;2023-05-02T09:47:23;98848.94;;;16.23;68.90
53719;BME280;39616;48.872;9.390;2023-05-02T09:49:54;98857.34;;;16.35;67.60
53719;BME280;39616;48.872;9.390;2023-05-02T09:52:24;98851.63;;;15.88;69.53
53719;BME280;39616;48.872;9.390;2023-05-02T09:54:54;98846.53;;;16.73;66.48
53719;BME280;39616;48.872;9.390;2023-05-02T09:57:40;98844.44;;;16.61;66.68
53719;BME280;39616;48.872;9.390;2023-05-02T10:00:11;98854.34;;;17.18;64.91
53719;BME280;39616;48.872;9.390;2023-05-02T10:02:48;98851.41;;;18.00;61.38
53719;BME280;39616;48.872;9.390;2023-05-02T10:05:19;98857.34;;;17.43;65.53
53719;BME280;39616;48.872;9.390;2023-05-02T10:07:50;98858.47;;;16.42;66.52
53719;BME280;39616;48.872;9.390;2023-05-02T10:10:21;98854.38;;;17.01;64.30
53719;BME280;39616;48.872;9.390;2023-05-02T10:12:52;98869.16;;;15.47;67.59
53719;BME280;39616;48.872;9.390;2023-05-02T10:15:26;98868.03;;;15.48;67.57
53719;BME280;39616;48.872;9.390;2023-05-02T10:17:59;98867.38;;;15.82;66.71
53719;BME280;39616;48.872;9.390;2023-05-02T10:20:34;98862.13;;;16.99;62.85
53719;BME280;39616;48.872;9.390;2023-05-02T10:23:07;98861.41;;;17.28;61.62
53719;BME280;39616;48.872;9.390;2023-05-02T10:25:38;98856.06;;;16.76;64.98
53719;BME280;39616;48.872;9.390;2023-05-02T10:28:09;98859.91;;;16.75;64.97
53719;BME280;39616;48.872;9.390;2023-05-02T10:30:43;98862.47;;;16.88;64.20
53719;BME280;39616;48.872;9.390;2023-05-02T10:33:15;98856.34;;;16.22;66.19
53719;BME280;39616;48.872;9.390;2023-05-02T10:35:46;98867.47;;;16.17;66.83
53719;BME280;39616;48.872;9.390;2023-05-02T10:38:19;98857.78;;;16.46;64.93
53719;BME280;39616;48.872;9.390;2023-05-02T10:40:59;98857.91;;;15.97;63.50
53719;BME280;39616;48.872;9.390;2023-05-02T10:43:33;98858.13;;;16.27;63.33
53719;BME280;39616;48.872;9.390;2023-05-02T10:46:33;98854.13;;;16.50;62.36
53719;BME280;39616;48.872;9.390;2023-05-02T10:51:37;98833.84;;;18.97;57.65
53719;BME280;39616;48.872;9.390;2023-05-02T10:54:21;98840.09;;;17.80;58.40
53719;BME280;39616;48.872;9.390;2023-05-02T10:59:40;98837.19;;;17.38;59.47
53719;BME280;39616;48.872;9.390;2023-05-02T11:05:03;98842.09;;;17.24;61.19
53719;BME280;39616;48.872;9.390;2023-05-02T11:07:36;98841.94;;;17.21;61.43
53719;BME280;39616;48.872;9.390;2023-05-02T11:12:56;98826.78;;;18.33;59.04
53719;BME280;39616;48.872;9.390;2023-05-02T11:18:11;98830.00;;;19.22;54.26
53719;BME280;39616;48.872;9.390;2023-05-02T11:20:43;98822.66;;;18.27;56.19
53719;BME280;39616;48.872;9.390;2023-05-02T11:25:45;98829.81;;;18.61;54.75
53719;BME280;39616;48.872;9.390;2023-05-02T11:28:51;98829.22;;;17.54;57.14
53719;BME280;39616;48.872;9.390;2023-05-02T11:34:00;98827.19;;;17.34;57.83
53719;BME280;39616;48.872;9.390;2023-05-02T11:36:32;98826.84;;;17.74;54.27
53719;BME280;39616;48.872;9.390;2023-05-02T11:39:03;98835.00;;;17.23;56.11
53719;BME280;39616;48.872;9.390;2023-05-02T11:41:38;98824.91;;;17.45;58.38
53719;BME280;39616;48.872;9.390;2023-05-02T11:44:09;98827.91;;;17.60;58.07
53719;BME280;39616;48.872;9.390;2023-05-02T11:46:39;98826.75;;;17.61;56.58
53719;BME280;39616;48.872;9.390;2023-05-02T11:49:10;98820.56;;;18.03;55.88
53719;BME280;39616;48.872;9.390;2023-05-02T11:51:42;98826.91;;;17.27;57.51
53719;BME280;39616;48.872;9.390;2023-05-02T11:54:19;98815.50;;;18.34;57.26
53719;BME280;39616;48.872;9.390;2023-05-02T11:56:50;98820.78;;;18.94;56.49
53719;BME280;39616;48.872;9.390;2023-05-02T11:59:21;98823.66;;;18.43;55.78
53719;BME280;39616;48.872;9.390;2023-05-02T12:01:51;98816.81;;;18.07;57.14
53719;BME280;39616;48.872;9.390;2023-05-02T12:04:22;98812.13;;;18.71;55.47
53719;BME280;39616;48.872;9.390;2023-05-02T12:06:56;98823.72;;;18.14;54.83
53719;BME280;39616;48.872;9.390;2023-05-02T12:09:26;98819.34;;;17.62;55.23
53719;BME280;39616;48.872;9.390;2023-05-02T12:11:57;98821.00;;;18.34;55.95
53719;BME280;39616;48.872;9.390;2023-05-02T12:14:28;98823.38;;;18.78;54.43
53719;BME280;39616;48.872;9.390;2023-05-02T12:16:59;98819.63;;;18.62;52.57
53719;BME280;39616;48.872;9.390;2023-05-02T12:19:30;98823.66;;;18.43;54.81
53719;BME280;39616;48.872;9.390;2023-05-02T12:22:00;98824.66;;;18.59;53.71
53719;BME280;39616;48.872;9.390;2023-05-02T12:24:31;98819.56;;;18.07;57.24
53719;BME280;39616;48.872;9.390;2023-05-02T12:27:14;98830.09;;;17.76;58.22
53719;BME280;39616;48.872;9.390;2023-05-02T12:29:46;98838.69;;;17.27;59.41
53719;BME280;39616;48.872;9.390;2023-05-02T12:32:28;98855.41;;;16.35;61.05
53719;BME280;39616;48.872;9.390;2023-05-02T12:35:00;98857.94;;;16.14;62.33
53719;BME280;39616;48.872;9.390;2023-05-02T12:37:31;98861.38;;;15.32;65.99
53719;BME280;39616;48.872;9.390;2023-05-02T12:40:01;98875.38;;;15.08;69.73
53719;BME280;39616;48.872;9.390;2023-05-02T12:42:31;98877.75;;;14.56;73.60
53719;BME280;39616;48.872;9.390;2023-05-02T12:45:03;98873.44;;;14.55;77.48
53719;BME280;39616;48.872;9.390;2023-05-02T12:47:43;98872.13;;;14.74;82.46
53719;BME280;39616;48.872;9.390;2023-05-02T12:50:16;98878.53;;;14.70;84.76
53719;BME280;39616;48.872;9.390;2023-05-02T12:52:51;98869.81;;;14.90;89.43
53719;BME280;39616;48.872;9.390;2023-05-02T12:55:29;98876.16;;;14.77;89.25
53719;BME280;39616;48.872;9.390;2023-05-02T12:58:02;98876.81;;;14.60;92.16
53719;BME280;39616;48.872;9.390;2023-05-02T13:00:35;98882.16;;;14.65;92.93
53719;BME280;39616;48.872;9.390;2023-05-02T13:03:07;98886.44;;;14.58;87.87
53719;BME280;39616;48.872;9.390;2023-05-02T13:05:37;98884.34;;;14.77;88.91
53719;BME280;39616;48.872;9.390;2023-05-02T13:08:08;98882.47;;;14.64;86.57
53719;BME280;39616;48.872;9.390;2023-05-02T13:10:38;98883.75;;;14.44;83.49
53719;BME280;39616;48.872;9.390;2023-05-02T13:13:09;98875.78;;;14.70;83.94
53719;BME280;39616;48.872;9.390;2023-05-02T13:15:40;98880.06;;;14.26;79.84
53719;BME280;39616;48.872;9.390;2023-05-02T13:18:11;98874.06;;;14.38;80.46
53719;BME280;39616;48.872;9.390;2023-05-02T13:20:41;98872.34;;;14.64;80.04
53719;BME280;39616;48.872;9.390;2023-05-02T13:23:14;98862.06;;;15.06;81.05
53719;BME280;39616;48.872;9.390;2023-05-02T13:25:45;98856.78;;;15.10;75.20
53719;BME280;39616;48.872;9.390;2023-05-02T13:28:16;98858.94;;;15.30;74.97
53719;BME280;39616;48.872;9.390;2023-05-02T13:30:46;98852.38;;;15.71;76.28
53719;BME280;39616;48.872;9.390;2023-05-02T13:33:17;98855.78;;;15.77;75.20
53719;BME280;39616;48.872;9.390;2023-05-02T13:35:47;98850.22;;;15.51;72.46
53719;BME280;39616;48.872;9.390;2023-05-02T13:38:18;98850.00;;;15.78;75.30
53719;BME280;39616;48.872;9.390;2023-05-02T13:40:48;98844.91;;;16.03;73.86
53719;BME280;39616;48.872;9.390;2023-05-02T13:43:19;98844.53;;;15.78;71.82
53719;BME280;39616;48.872;9.390;2023-05-02T13:45:50;98856.72;;;15.72;67.94
53719;BME280;39616;48.872;9.390;2023-05-02T13:48:21;98843.88;;;15.73;67.60
53719;BME280;39616;48.872;9.390;2023-05-02T13:50:51;98847.13;;;15.83;66.02
53719;BME280;39616;48.872;9.390;2023-05-02T13:53:22;98843.59;;;16.09;66.13
53719;BME280;39616;48.872;9.390;2023-05-02T13:55:52;98847.78;;;15.98;64.46
53719;BME280;39616;48.872;9.390;2023-05-02T13:58:22;98842.47;;;16.01;63.88
53719;BME280;39616;48.872;9.390;2023-05-02T14:00:53;98846.38;;;16.17;63.02
53719;BME280;39616;48.872;9.390;2023-05-02T14:03:23;98847.97;;;16.18;60.45
53719;BME280;39616;48.872;9.390;2023-05-02T14:05:53;98840.56;;;16.62;60.04